sensor_id;sensor_type;location;lat;lon;timestamp;temperature;humidity
18823;DHT22;9540;51.550;7.980;2023-04-09T00:00:44;1.00;99.90
18823;DHT22;9540;51.550;7.980;2023-04-09T00:03:11;1.10;99.90
18823;DHT22;9540;51.550;7.980;2023-04-09T00:05:38;1.20;99.90
18823;DHT22;9540;51.550;7.980;2023-04-09T00:08:07;1.20;99.90
18823;DHT22;9540;51.550;7.980;2023-04-09T00:10:35;1.10;99.90
18823;DHT22;9540;51.550;7.980;2023-04-09T00:13:02;1.00;99.90
18823;DHT22;9540;51.550;7.980;2023-04-09T00:15:29;0.90;99.90
18823;DHT22;9540;51.550;7.980;2023-04-09T00:17:57;0.90;99.90
18823;DHT22;9540;51.550;7.980;2023-04-09T00:20:24;0.90;99.90
18823;DHT22;9540;51.550;7.980;2023-04-09T00:22:51;0.90;99.90
18823;DHT22;9540;51.550;7.980;2023-04-09T00:25:20;1.00;99.90
18823;DHT22;9540;51.550;7.980;2023-04-09T00:27:47;0.90;99.90
18823;DHT22;9540;51.550;7.980;2023-04-09T00:30:14;0.80;99.90
18823;DHT22;9540;51.550;7.980;2023-04-09T00:32:41;0.70;99.90
18823;DHT22;9540;51.550;7.980;2023-04-09T00:35:08;0.70;99.90
18823;DHT22;9540;51.550;7.980;2023-04-09T00:37:35;0.60;99.90
18823;DHT22;9540;51.550;7.980;2023-04-09T00:40:03;0.60;99.90
18823;DHT22;9540;51.550;7.980;2023-04-09T00:42:32;0.60;99.90
18823;DHT22;9540;51.550;7.980;2023-04-09T00:44:59;0.60;99.90
18823;DHT22;9540;51.550;7.980;2023-04-09T00:47:28;0.60;99.90
18823;DHT22;9540;51.550;7.980;2023-04-09T00:49:56;0.70;99.90
18823;DHT22;9540;51.550;7.980;2023-04-09T00:52:24;0.70;99.90
18823;DHT22;9540;51.550;7.980;2023-04-09T00:54:52;0.70;99.90
18823;DHT22;9540;51.550;7.980;2023-04-09T00:57:19;0.70;99.90
18823;DHT22;9540;51.550;7.980;2023-04-09T00:59:47;0.80;99.90
18823;DHT22;9540;51.550;7.980;2023-04-09T01:02:14;0.90;99.90
18823;DHT22;9540;51.550;7.980;2023-04-09T01:04:42;0.90;99.90
18823;DHT22;9540;51.550;7.980;2023-04-09T01:07:12;1.00;99.90
18823;DHT22;9540;51.550;7.980;2023-04-09T01:09:47;1.10;99.90
18823;DHT22;9540;51.550;7.980;2023-04-09T01:12:23;1.20;99.90
18823;DHT22;9540;51.550;7.980;2023-04-09T01:14:55;1.30;99.90
18823;DHT22;9540;51.550;7.980;2023-04-09T01:17:32;1.40;99.90
18823;DHT22;9540;51.550;7.980;2023-04-09T01:20:02;1.40;99.90
18823;DHT22;9540;51.550;7.980;2023-04-09T01:22:39;1.50;99.90
18823;DHT22;9540;51.550;7.980;2023-04-09T01:25:19;1.50;99.90
18823;DHT22;9540;51.550;7.980;2023-04-09T01:30:24;1.70;99.90
18823;DHT22;9540;51.550;7.980;2023-04-09T01:32:53;1.70;99.90
18823;DHT22;9540;51.550;7.980;2023-04-09T01:35:21;1.60;99.90
18823;DHT22;9540;51.550;7.980;2023-04-09T01:37:51;1.60;99.90
18823;DHT22;9540;51.550;7.980;2023-04-09T01:40:18;1.50;99.90
18823;DHT22;9540;51.550;7.980;2023-04-09T01:42:46;1.50;99.90
18823;DHT22;9540;51.550;7.980;2023-04-09T01:45:14;1.50;99.90
18823;DHT22;9540;51.550;7.980;2023-04-09T01:47:43;1.40;99.90
18823;DHT22;9540;51.550;7.980;2023-04-09T01:50:10;1.40;99.90
18823;DHT22;9540;51.550;7.980;2023-04-09T01:52:38;1.40;99.90
18823;DHT22;9540;51.550;7.980;2023-04-09T01:55:06;1.40;99.90
18823;DHT22;9540;51.550;7.980;2023-04-09T01:57:33;1.40;99.90
18823;DHT22;9540;51.550;7.980;2023-04-09T02:00:00;1.30;99.90
18823;DHT22;9540;51.550;7.980;2023-04-09T02:02:35;1.20;99.90
18823;DHT22;9540;51.550;7.980;2023-04-09T02:05:07;1.10;99.90
18823;DHT22;9540;51.550;7.980;2023-04-09T02:07:38;1.10;99.90
18823;DHT22;9540;51.550;7.980;2023-04-09T02:10:09;1.00;99.90
18823;DHT22;9540;51.550;7.980;2023-04-09T02:12:39;0.90;99.90
18823;DHT22;9540;51.550;7.980;2023-04-09T02:15:08;0.90;99.90
18823;DHT22;9540;51.550;7.980;2023-04-09T02:17:36;0.90;99.90
18823;DHT22;9540;51.550;7.980;2023-04-09T02:20:06;0.80;99.90
18823;DHT22;9540;51.550;7.980;2023-04-09T02:22:33;0.80;99.90
18823;DHT22;9540;51.550;7.980;2023-04-09T02:25:00;0.80;99.90
18823;DHT22;9540;51.550;7.980;2023-04-09T02:27:27;0.70;99.90
18823;DHT22;9540;51.550;7.980;2023-04-09T02:29:54;0.70;99.90
18823;DHT22;9540;51.550;7.980;2023-04-09T02:32:20;0.60;99.90
18823;DHT22;9540;51.550;7.980;2023-04-09T02:34:47;0.60;99.90
18823;DHT22;9540;51.550;7.980;2023-04-09T02:37:16;0.50;99.90
18823;DHT22;9540;51.550;7.980;2023-04-09T02:39:43;0.50;99.90
18823;DHT22;9540;51.550;7.980;2023-04-09T02:42:10;0.30;99.90
18823;DHT22;9540;51.550;7.980;2023-04-09T02:44:37;0.30;99.90
18823;DHT22;9540;51.550;7.980;2023-04-09T02:47:04;0.20;99.90
18823;DHT22;9540;51.550;7.980;2023-04-09T02:49:31;0.20;99.90
18823;DHT22;9540;51.550;7.980;2023-04-09T02:51:58;0.30;99.90
18823;DHT22;9540;51.550;7.980;2023-04-09T02:54:26;0.40;99.90
18823;DHT22;9540;51.550;7.980;2023-04-09T02:56:53;0.40;99.90
18823;DHT22;9540;51.550;7.980;2023-04-09T02:59:20;0.40;99.90
18823;DHT22;9540;51.550;7.980;2023-04-09T03:01:48;0.50;99.90
18823;DHT22;9540;51.550;7.980;2023-04-09T03:04:15;0.50;99.90
18823;DHT22;9540;51.550;7.980;2023-04-09T03:06:42;0.50;99.90
18823;DHT22;9540;51.550;7.980;2023-04-09T03:09:09;0.60;99.90
18823;DHT22;9540;51.550;7.980;2023-04-09T03:11:37;0.60;99.90
18823;DHT22;9540;51.550;7.980;2023-04-09T03:14:04;0.60;99.90
18823;DHT22;9540;51.550;7.980;2023-04-09T03:16:31;0.60;99.90
18823;DHT22;9540;51.550;7.980;2023-04-09T03:18:58;0.60;99.90
18823;DHT22;9540;51.550;7.980;2023-04-09T03:21:25;0.60;99.90
18823;DHT22;9540;51.550;7.980;2023-04-09T03:23:52;0.60;99.90
18823;DHT22;9540;51.550;7.980;2023-04-09T03:26:19;0.40;99.90
18823;DHT22;9540;51.550;7.980;2023-04-09T03:28:48;0.20;99.90
18823;DHT22;9540;51.550;7.980;2023-04-09T03:31:15;0.10;99.90
18823;DHT22;9540;51.550;7.980;2023-04-09T03:33:42;0.10;99.90
18823;DHT22;9540;51.550;7.980;2023-04-09T03:36:08;0.20;99.90
18823;DHT22;9540;51.550;7.980;2023-04-09T03:38:36;0.20;99.90
18823;DHT22;9540;51.550;7.980;2023-04-09T03:41:03;0.30;99.90
18823;DHT22;9540;51.550;7.980;2023-04-09T03:43:30;0.40;99.90
18823;DHT22;9540;51.550;7.980;2023-04-09T03:45:58;0.50;99.90
18823;DHT22;9540;51.550;7.980;2023-04-09T03:48:25;0.60;99.90
18823;DHT22;9540;51.550;7.980;2023-04-09T03:50:52;0.50;99.90
18823;DHT22;9540;51.550;7.980;2023-04-09T03:53:19;0.50;99.90
18823;DHT22;9540;51.550;7.980;2023-04-09T03:55:46;0.50;99.90
18823;DHT22;9540;51.550;7.980;2023-04-09T03:58:13;0.40;99.90
18823;DHT22;9540;51.550;7.980;2023-04-09T04:00:39;0.40;99.90
18823;DHT22;9540;51.550;7.980;2023-04-09T04:03:10;0.30;99.90
18823;DHT22;9540;51.550;7.980;2023-04-09T04:05:39;0.20;99.90
18823;DHT22;9540;51.550;7.980;2023-04-09T04:08:06;0.20;99.90
18823;DHT22;9540;51.550;7.980;2023-04-09T04:10:33;0.10;99.90
18823;DHT22;9540;51.550;7.980;2023-04-09T04:13:00;0.00;99.90
18823;DHT22;9540;51.550;7.980;2023-04-09T04:15:27;-0.10;99.90
18823;DHT22;9540;51.550;7.980;2023-04-09T04:17:54;-0.20;99.90
18823;DHT22;9540;51.550;7.980;2023-04-09T04:20:23;-0.30;99.90
18823;DHT22;9540;51.550;7.980;2023-04-09T04:22:51;-0.50;99.90
18823;DHT22;9540;51.550;7.980;2023-04-09T04:25:18;-0.50;99.90
18823;DHT22;9540;51.550;7.980;2023-04-09T04:27:45;-0.50;99.90
18823;DHT22;9540;51.550;7.980;2023-04-09T04:30:12;-0.50;99.90
18823;DHT22;9540;51.550;7.980;2023-04-09T04:32:39;-0.50;99.90
18823;DHT22;9540;51.550;7.980;2023-04-09T04:35:06;-0.40;99.90
18823;DHT22;9540;51.550;7.980;2023-04-09T04:37:34;-0.30;99.90
18823;DHT22;9540;51.550;7.980;2023-04-09T04:40:02;-0.20;99.90
18823;DHT22;9540;51.550;7.980;2023-04-09T04:42:29;-0.20;99.90
18823;DHT22;9540;51.550;7.980;2023-04-09T04:44:56;-0.20;99.90
18823;DHT22;9540;51.550;7.980;2023-04-09T04:47:23;-0.20;99.90
18823;DHT22;9540;51.550;7.980;2023-04-09T04:49:50;-0.20;99.90
18823;DHT22;9540;51.550;7.980;2023-04-09T04:52:17;-0.20;99.90
18823;DHT22;9540;51.550;7.980;2023-04-09T04:54:46;-0.10;99.90
18823;DHT22;9540;51.550;7.980;2023-04-09T04:57:13;-0.10;99.90
18823;DHT22;9540;51.550;7.980;2023-04-09T04:59:40;0.00;99.90
18823;DHT22;9540;51.550;7.980;2023-04-09T05:02:07;0.00;99.90
18823;DHT22;9540;51.550;7.980;2023-04-09T05:04:34;0.00;99.90
18823;DHT22;9540;51.550;7.980;2023-04-09T05:07:01;-0.10;99.90
18823;DHT22;9540;51.550;7.980;2023-04-09T05:09:28;-0.10;99.90
18823;DHT22;9540;51.550;7.980;2023-04-09T05:11:57;-0.10;99.90
18823;DHT22;9540;51.550;7.980;2023-04-09T05:14:24;0.00;99.90
18823;DHT22;9540;51.550;7.980;2023-04-09T05:16:51;0.20;99.90
18823;DHT22;9540;51.550;7.980;2023-04-09T05:19:18;0.40;99.90
18823;DHT22;9540;51.550;7.980;2023-04-09T05:21:45;0.70;99.90
18823;DHT22;9540;51.550;7.980;2023-04-09T05:24:12;1.10;99.90
18823;DHT22;9540;51.550;7.980;2023-04-09T05:26:40;1.20;99.90
18823;DHT22;9540;51.550;7.980;2023-04-09T05:29:08;1.20;99.90
18823;DHT22;9540;51.550;7.980;2023-04-09T05:31:35;1.30;99.90
18823;DHT22;9540;51.550;7.980;2023-04-09T05:34:02;1.50;99.90
18823;DHT22;9540;51.550;7.980;2023-04-09T05:36:29;1.70;99.90
18823;DHT22;9540;51.550;7.980;2023-04-09T05:38:56;1.90;99.90
18823;DHT22;9540;51.550;7.980;2023-04-09T05:41:23;2.00;99.90
18823;DHT22;9540;51.550;7.980;2023-04-09T05:43:50;2.10;99.90
18823;DHT22;9540;51.550;7.980;2023-04-09T05:46:19;2.30;99.90
18823;DHT22;9540;51.550;7.980;2023-04-09T05:48:46;2.30;99.90
18823;DHT22;9540;51.550;7.980;2023-04-09T05:51:13;2.30;99.90
18823;DHT22;9540;51.550;7.980;2023-04-09T05:53:40;2.30;99.90
18823;DHT22;9540;51.550;7.980;2023-04-09T05:56:12;2.50;99.90
18823;DHT22;9540;51.550;7.980;2023-04-09T05:58:40;2.60;99.90
18823;DHT22;9540;51.550;7.980;2023-04-09T06:01:07;2.80;99.90
18823;DHT22;9540;51.550;7.980;2023-04-09T06:03:36;3.00;99.90
18823;DHT22;9540;51.550;7.980;2023-04-09T06:06:03;3.20;99.90
18823;DHT22;9540;51.550;7.980;2023-04-09T06:08:30;3.40;99.90
18823;DHT22;9540;51.550;7.980;2023-04-09T06:10:57;3.60;99.90
18823;DHT22;9540;51.550;7.980;2023-04-09T06:13:25;3.80;99.90
18823;DHT22;9540;51.550;7.980;2023-04-09T06:15:52;4.00;99.90
18823;DHT22;9540;51.550;7.980;2023-04-09T06:18:19;4.10;99.90
18823;DHT22;9540;51.550;7.980;2023-04-09T06:20:47;4.30;99.90
18823;DHT22;9540;51.550;7.980;2023-04-09T06:23:14;4.40;99.90
18823;DHT22;9540;51.550;7.980;2023-04-09T06:25:41;4.50;99.90
18823;DHT22;9540;51.550;7.980;2023-04-09T06:28:08;4.50;99.90
18823;DHT22;9540;51.550;7.980;2023-04-09T06:30:35;4.70;99.90
18823;DHT22;9540;51.550;7.980;2023-04-09T06:33:02;4.80;99.90
18823;DHT22;9540;51.550;7.980;2023-04-09T06:35:29;5.00;99.90
18823;DHT22;9540;51.550;7.980;2023-04-09T06:37:58;5.50;99.90
18823;DHT22;9540;51.550;7.980;2023-04-09T06:40:25;6.10;99.90
18823;DHT22;9540;51.550;7.980;2023-04-09T06:42:52;6.80;99.90
18823;DHT22;9540;51.550;7.980;2023-04-09T06:45:19;7.30;99.90
18823;DHT22;9540;51.550;7.980;2023-04-09T06:47:46;7.40;99.90
18823;DHT22;9540;51.550;7.980;2023-04-09T06:50:14;7.60;99.90
18823;DHT22;9540;51.550;7.980;2023-04-09T06:52:42;7.90;99.90
18823;DHT22;9540;51.550;7.980;2023-04-09T06:55:10;8.10;99.90
18823;DHT22;9540;51.550;7.980;2023-04-09T06:57:37;8.20;99.90
18823;DHT22;9540;51.550;7.980;2023-04-09T07:00:05;8.30;99.90
18823;DHT22;9540;51.550;7.980;2023-04-09T07:02:33;8.40;99.90
18823;DHT22;9540;51.550;7.980;2023-04-09T07:05:00;8.30;99.90
18823;DHT22;9540;51.550;7.980;2023-04-09T07:07:28;8.50;99.90
18823;DHT22;9540;51.550;7.980;2023-04-09T07:09:55;8.80;99.90
18823;DHT22;9540;51.550;7.980;2023-04-09T07:12:27;9.10;99.90
18823;DHT22;9540;51.550;7.980;2023-04-09T07:14:56;9.30;99.90
18823;DHT22;9540;51.550;7.980;2023-04-09T07:17:24;9.60;99.90
18823;DHT22;9540;51.550;7.980;2023-04-09T07:19:51;9.90;99.90
18823;DHT22;9540;51.550;7.980;2023-04-09T07:22:20;10.30;99.90
18823;DHT22;9540;51.550;7.980;2023-04-09T07:24:47;10.10;99.90
18823;DHT22;9540;51.550;7.980;2023-04-09T07:27:18;9.90;99.90
18823;DHT22;9540;51.550;7.980;2023-04-09T07:29:46;9.80;99.90
18823;DHT22;9540;51.550;7.980;2023-04-09T07:32:13;9.80;99.90
18823;DHT22;9540;51.550;7.980;2023-04-09T07:34:41;9.80;99.90
18823;DHT22;9540;51.550;7.980;2023-04-09T07:37:08;10.00;99.90
18823;DHT22;9540;51.550;7.980;2023-04-09T07:39:35;10.40;99.90
18823;DHT22;9540;51.550;7.980;2023-04-09T07:42:03;10.60;99.90
18823;DHT22;9540;51.550;7.980;2023-04-09T07:44:32;10.70;99.90
18823;DHT22;9540;51.550;7.980;2023-04-09T07:47:03;11.20;99.90
18823;DHT22;9540;51.550;7.980;2023-04-09T07:49:30;11.50;99.90
18823;DHT22;9540;51.550;7.980;2023-04-09T07:51:58;11.70;99.90
18823;DHT22;9540;51.550;7.980;2023-04-09T07:54:25;11.60;99.90
18823;DHT22;9540;51.550;7.980;2023-04-09T07:56:53;11.50;99.90
18823;DHT22;9540;51.550;7.980;2023-04-09T07:59:21;11.90;99.90
18823;DHT22;9540;51.550;7.980;2023-04-09T08:01:48;12.20;99.90
18823;DHT22;9540;51.550;7.980;2023-04-09T08:04:16;12.70;99.90
18823;DHT22;9540;51.550;7.980;2023-04-09T08:06:43;13.50;99.90
18823;DHT22;9540;51.550;7.980;2023-04-09T08:09:14;14.10;99.90
18823;DHT22;9540;51.550;7.980;2023-04-09T08:11:41;14.40;99.90
18823;DHT22;9540;51.550;7.980;2023-04-09T08:14:10;14.60;99.90
18823;DHT22;9540;51.550;7.980;2023-04-09T08:16:38;14.80;99.90
18823;DHT22;9540;51.550;7.980;2023-04-09T08:19:05;15.00;99.90
18823;DHT22;9540;51.550;7.980;2023-04-09T08:21:35;15.10;99.90
18823;DHT22;9540;51.550;7.980;2023-04-09T08:24:03;15.20;99.90
18823;DHT22;9540;51.550;7.980;2023-04-09T08:26:30;15.20;99.90
18823;DHT22;9540;51.550;7.980;2023-04-09T08:28:57;15.00;99.90
18823;DHT22;9540;51.550;7.980;2023-04-09T08:31:24;14.60;99.90
18823;DHT22;9540;51.550;7.980;2023-04-09T08:33:51;14.70;99.90
18823;DHT22;9540;51.550;7.980;2023-04-09T08:36:18;14.80;99.90
18823;DHT22;9540;51.550;7.980;2023-04-09T08:38:47;14.80;99.90
18823;DHT22;9540;51.550;7.980;2023-04-09T08:41:18;15.30;99.90
18823;DHT22;9540;51.550;7.980;2023-04-09T08:43:46;15.90;99.90
18823;DHT22;9540;51.550;7.980;2023-04-09T08:46:14;16.30;99.90
18823;DHT22;9540;51.550;7.980;2023-04-09T08:48:43;16.60;99.90
18823;DHT22;9540;51.550;7.980;2023-04-09T08:51:14;16.70;99.90
18823;DHT22;9540;51.550;7.980;2023-04-09T08:53:43;17.00;99.90
18823;DHT22;9540;51.550;7.980;2023-04-09T08:56:13;17.40;99.90
18823;DHT22;9540;51.550;7.980;2023-04-09T08:58:44;18.10;99.90
18823;DHT22;9540;51.550;7.980;2023-04-09T09:01:18;18.70;98.60
18823;DHT22;9540;51.550;7.980;2023-04-09T09:04:00;19.60;94.70
18823;DHT22;9540;51.550;7.980;2023-04-09T09:06:33;19.40;96.50
18823;DHT22;9540;51.550;7.980;2023-04-09T09:09:03;20.10;88.10
18823;DHT22;9540;51.550;7.980;2023-04-09T09:11:32;20.40;93.30
18823;DHT22;9540;51.550;7.980;2023-04-09T09:14:01;20.80;79.90
18823;DHT22;9540;51.550;7.980;2023-04-09T09:16:28;20.20;74.60
18823;DHT22;9540;51.550;7.980;2023-04-09T09:18:55;20.20;70.00
18823;DHT22;9540;51.550;7.980;2023-04-09T09:21:23;21.20;69.30
18823;DHT22;9540;51.550;7.980;2023-04-09T09:23:51;21.70;67.30
18823;DHT22;9540;51.550;7.980;2023-04-09T09:26:21;21.80;66.30
18823;DHT22;9540;51.550;7.980;2023-04-09T09:28:50;22.10;62.80
18823;DHT22;9540;51.550;7.980;2023-04-09T09:31:19;22.10;62.20
18823;DHT22;9540;51.550;7.980;2023-04-09T09:33:47;22.20;62.00
18823;DHT22;9540;51.550;7.980;2023-04-09T09:36:15;22.20;59.40
18823;DHT22;9540;51.550;7.980;2023-04-09T09:38:57;21.30;62.00
18823;DHT22;9540;51.550;7.980;2023-04-09T09:41:26;20.20;65.30
18823;DHT22;9540;51.550;7.980;2023-04-09T09:43:55;19.30;64.40
18823;DHT22;9540;51.550;7.980;2023-04-09T09:46:24;18.80;66.00
18823;DHT22;9540;51.550;7.980;2023-04-09T09:48:52;18.80;67.70
18823;DHT22;9540;51.550;7.980;2023-04-09T09:51:21;19.60;63.10
18823;DHT22;9540;51.550;7.980;2023-04-09T09:53:54;18.90;68.70
18823;DHT22;9540;51.550;7.980;2023-04-09T09:56:23;19.40;66.80
18823;DHT22;9540;51.550;7.980;2023-04-09T09:59:04;19.40;66.20
18823;DHT22;9540;51.550;7.980;2023-04-09T10:01:32;19.90;65.00
18823;DHT22;9540;51.550;7.980;2023-04-09T10:04:00;21.10;61.90
18823;DHT22;9540;51.550;7.980;2023-04-09T10:06:29;21.90;66.00
18823;DHT22;9540;51.550;7.980;2023-04-09T10:08:57;22.70;60.90
18823;DHT22;9540;51.550;7.980;2023-04-09T10:11:26;22.80;59.60
18823;DHT22;9540;51.550;7.980;2023-04-09T10:13:56;21.40;60.10
18823;DHT22;9540;51.550;7.980;2023-04-09T10:16:25;20.70;61.30
18823;DHT22;9540;51.550;7.980;2023-04-09T10:18:52;20.40;60.80
18823;DHT22;9540;51.550;7.980;2023-04-09T10:21:29;20.30;61.30
18823;DHT22;9540;51.550;7.980;2023-04-09T10:23:57;19.90;60.50
18823;DHT22;9540;51.550;7.980;2023-04-09T10:26:25;18.90;63.10
18823;DHT22;9540;51.550;7.980;2023-04-09T10:29:05;18.40;66.30
18823;DHT22;9540;51.550;7.980;2023-04-09T10:31:52;19.70;64.70
18823;DHT22;9540;51.550;7.980;2023-04-09T10:34:21;21.30;60.30
18823;DHT22;9540;51.550;7.980;2023-04-09T10:36:55;21.20;61.90
18823;DHT22;9540;51.550;7.980;2023-04-09T10:39:25;20.50;65.50
18823;DHT22;9540;51.550;7.980;2023-04-09T10:41:53;20.30;68.40
18823;DHT22;9540;51.550;7.980;2023-04-09T10:44:23;20.60;61.90
18823;DHT22;9540;51.550;7.980;2023-04-09T10:46:54;20.10;65.70
18823;DHT22;9540;51.550;7.980;2023-04-09T10:49:22;19.60;64.20
18823;DHT22;9540;51.550;7.980;2023-04-09T10:51:54;19.20;65.20
18823;DHT22;9540;51.550;7.980;2023-04-09T10:54:43;18.30;64.10
18823;DHT22;9540;51.550;7.980;2023-04-09T10:57:13;17.80;65.60
18823;DHT22;9540;51.550;7.980;2023-04-09T10:59:41;17.30;67.50
18823;DHT22;9540;51.550;7.980;2023-04-09T11:02:47;16.90;70.10
18823;DHT22;9540;51.550;7.980;2023-04-09T11:05:31;16.30;72.60
18823;DHT22;9540;51.550;7.980;2023-04-09T11:08:04;15.80;75.70
18823;DHT22;9540;51.550;7.980;2023-04-09T11:10:32;15.70;75.80
18823;DHT22;9540;51.550;7.980;2023-04-09T11:13:00;16.20;77.30
18823;DHT22;9540;51.550;7.980;2023-04-09T11:15:27;17.20;71.10
18823;DHT22;9540;51.550;7.980;2023-04-09T11:17:57;17.10;72.00
18823;DHT22;9540;51.550;7.980;2023-04-09T11:20:25;17.50;71.70
18823;DHT22;9540;51.550;7.980;2023-04-09T11:22:53;18.20;66.70
18823;DHT22;9540;51.550;7.980;2023-04-09T11:25:21;18.70;72.30
18823;DHT22;9540;51.550;7.980;2023-04-09T11:27:49;19.00;68.30
18823;DHT22;9540;51.550;7.980;2023-04-09T11:30:16;18.40;72.00
18823;DHT22;9540;51.550;7.980;2023-04-09T11:32:43;17.70;71.00
18823;DHT22;9540;51.550;7.980;2023-04-09T11:35:12;17.60;68.90
18823;DHT22;9540;51.550;7.980;2023-04-09T11:37:41;17.50;68.70
18823;DHT22;9540;51.550;7.980;2023-04-09T11:40:14;17.60;68.00
18823;DHT22;9540;51.550;7.980;2023-04-09T11:42:42;17.60;69.40
18823;DHT22;9540;51.550;7.980;2023-04-09T11:45:11;17.40;68.70
18823;DHT22;9540;51.550;7.980;2023-04-09T11:47:40;17.10;68.80
18823;DHT22;9540;51.550;7.980;2023-04-09T11:50:09;16.80;69.40
18823;DHT22;9540;51.550;7.980;2023-04-09T11:52:39;16.70;71.70
18823;DHT22;9540;51.550;7.980;2023-04-09T11:55:07;16.90;72.50
18823;DHT22;9540;51.550;7.980;2023-04-09T11:57:42;17.00;69.90
18823;DHT22;9540;51.550;7.980;2023-04-09T12:00:11;17.00;68.40
18823;DHT22;9540;51.550;7.980;2023-04-09T12:02:40;16.90;69.10
18823;DHT22;9540;51.550;7.980;2023-04-09T12:05:11;16.70;73.20
18823;DHT22;9540;51.550;7.980;2023-04-09T12:07:40;16.50;74.20
18823;DHT22;9540;51.550;7.980;2023-04-09T12:10:11;16.60;75.50
18823;DHT22;9540;51.550;7.980;2023-04-09T12:12:39;16.70;73.00
18823;DHT22;9540;51.550;7.980;2023-04-09T12:15:11;16.30;70.70
18823;DHT22;9540;51.550;7.980;2023-04-09T12:17:38;16.10;72.70
18823;DHT22;9540;51.550;7.980;2023-04-09T12:20:06;16.10;75.10
18823;DHT22;9540;51.550;7.980;2023-04-09T12:22:34;16.20;72.50
18823;DHT22;9540;51.550;7.980;2023-04-09T12:25:07;16.10;74.60
18823;DHT22;9540;51.550;7.980;2023-04-09T12:27:34;15.60;77.60
18823;DHT22;9540;51.550;7.980;2023-04-09T12:30:01;14.90;79.30
18823;DHT22;9540;51.550;7.980;2023-04-09T12:32:28;14.80;78.60
18823;DHT22;9540;51.550;7.980;2023-04-09T12:34:55;15.00;80.10
18823;DHT22;9540;51.550;7.980;2023-04-09T12:37:22;15.10;78.30
18823;DHT22;9540;51.550;7.980;2023-04-09T12:39:49;15.10;78.20
18823;DHT22;9540;51.550;7.980;2023-04-09T12:42:17;15.40;86.00
18823;DHT22;9540;51.550;7.980;2023-04-09T12:44:44;15.80;79.90
18823;DHT22;9540;51.550;7.980;2023-04-09T12:47:11;15.90;77.50
18823;DHT22;9540;51.550;7.980;2023-04-09T12:49:39;16.00;78.60
18823;DHT22;9540;51.550;7.980;2023-04-09T12:52:09;15.90;80.00
18823;DHT22;9540;51.550;7.980;2023-04-09T12:54:36;15.90;75.90
18823;DHT22;9540;51.550;7.980;2023-04-09T12:57:04;15.70;76.00
18823;DHT22;9540;51.550;7.980;2023-04-09T12:59:33;15.90;76.60
18823;DHT22;9540;51.550;7.980;2023-04-09T13:02:00;15.70;78.90
18823;DHT22;9540;51.550;7.980;2023-04-09T13:04:27;15.80;79.60
18823;DHT22;9540;51.550;7.980;2023-04-09T13:06:55;16.00;77.70
18823;DHT22;9540;51.550;7.980;2023-04-09T13:09:22;16.10;80.50
18823;DHT22;9540;51.550;7.980;2023-04-09T13:11:50;15.90;81.40
18823;DHT22;9540;51.550;7.980;2023-04-09T13:14:17;15.80;82.70
18823;DHT22;9540;51.550;7.980;2023-04-09T13:16:45;15.80;82.40
18823;DHT22;9540;51.550;7.980;2023-04-09T13:19:12;15.70;79.00
18823;DHT22;9540;51.550;7.980;2023-04-09T13:21:39;15.70;75.40
18823;DHT22;9540;51.550;7.980;2023-04-09T13:24:06;16.10;77.50
18823;DHT22;9540;51.550;7.980;2023-04-09T13:26:33;15.90;76.40
18823;DHT22;9540;51.550;7.980;2023-04-09T13:29:00;16.00;78.50
18823;DHT22;9540;51.550;7.980;2023-04-09T13:31:28;16.30;75.50
18823;DHT22;9540;51.550;7.980;2023-04-09T13:33:57;16.60;76.30
18823;DHT22;9540;51.550;7.980;2023-04-09T13:36:24;16.90;73.70
18823;DHT22;9540;51.550;7.980;2023-04-09T13:38:52;16.90;72.30
18823;DHT22;9540;51.550;7.980;2023-04-09T13:41:19;16.60;76.60
18823;DHT22;9540;51.550;7.980;2023-04-09T13:43:52;16.50;75.80
18823;DHT22;9540;51.550;7.980;2023-04-09T13:46:19;16.40;74.10
18823;DHT22;9540;51.550;7.980;2023-04-09T13:48:46;16.10;77.30
18823;DHT22;9540;51.550;7.980;2023-04-09T13:51:14;16.20;76.00
18823;DHT22;9540;51.550;7.980;2023-04-09T13:53:41;16.30;73.30
18823;DHT22;9540;51.550;7.980;2023-04-09T13:56:10;16.00;73.50
18823;DHT22;9540;51.550;7.980;2023-04-09T13:58:37;15.50;73.60
18823;DHT22;9540;51.550;7.980;2023-04-09T14:01:05;15.60;73.60
18823;DHT22;9540;51.550;7.980;2023-04-09T14:03:32;15.80;76.40
18823;DHT22;9540;51.550;7.980;2023-04-09T14:05:59;15.70;82.30
18823;DHT22;9540;51.550;7.980;2023-04-09T14:08:28;15.60;76.60
18823;DHT22;9540;51.550;7.980;2023-04-09T14:10:55;15.60;77.20
18823;DHT22;9540;51.550;7.980;2023-04-09T14:13:22;15.50;77.70
18823;DHT22;9540;51.550;7.980;2023-04-09T14:15:49;15.40;78.90
18823;DHT22;9540;51.550;7.980;2023-04-09T14:18:16;15.30;85.20
18823;DHT22;9540;51.550;7.980;2023-04-09T14:20:43;15.20;79.60
18823;DHT22;9540;51.550;7.980;2023-04-09T14:23:10;15.20;87.50
18823;DHT22;9540;51.550;7.980;2023-04-09T14:25:39;15.20;78.80
18823;DHT22;9540;51.550;7.980;2023-04-09T14:28:06;15.10;92.50
18823;DHT22;9540;51.550;7.980;2023-04-09T14:30:33;15.10;81.70
18823;DHT22;9540;51.550;7.980;2023-04-09T14:33:00;15.10;91.90
18823;DHT22;9540;51.550;7.980;2023-04-09T14:35:27;14.90;82.70
18823;DHT22;9540;51.550;7.980;2023-04-09T14:37:55;14.70;92.20
18823;DHT22;9540;51.550;7.980;2023-04-09T14:40:22;14.90;85.60
18823;DHT22;9540;51.550;7.980;2023-04-09T14:42:51;14.70;92.30
18823;DHT22;9540;51.550;7.980;2023-04-09T14:45:18;14.60;87.20
18823;DHT22;9540;51.550;7.980;2023-04-09T14:47:45;14.70;90.60
18823;DHT22;9540;51.550;7.980;2023-04-09T14:50:12;15.00;87.10
18823;DHT22;9540;51.550;7.980;2023-04-09T14:52:39;15.00;91.50
18823;DHT22;9540;51.550;7.980;2023-04-09T14:55:07;15.20;92.00
18823;DHT22;9540;51.550;7.980;2023-04-09T14:57:37;15.20;99.90
18823;DHT22;9540;51.550;7.980;2023-04-09T15:00:08;15.00;87.90
18823;DHT22;9540;51.550;7.980;2023-04-09T15:02:35;15.00;95.20
18823;DHT22;9540;51.550;7.980;2023-04-09T15:05:03;15.00;84.40
18823;DHT22;9540;51.550;7.980;2023-04-09T15:07:30;15.20;86.90
18823;DHT22;9540;51.550;7.980;2023-04-09T15:09:57;15.40;93.70
18823;DHT22;9540;51.550;7.980;2023-04-09T15:12:24;15.30;83.60
18823;DHT22;9540;51.550;7.980;2023-04-09T15:14:52;15.30;84.10
18823;DHT22;9540;51.550;7.980;2023-04-09T15:17:20;15.30;86.60
18823;DHT22;9540;51.550;7.980;2023-04-09T15:19:47;15.40;91.50
18823;DHT22;9540;51.550;7.980;2023-04-09T15:22:14;15.50;90.40
18823;DHT22;9540;51.550;7.980;2023-04-09T15:24:41;15.90;87.10
18823;DHT22;9540;51.550;7.980;2023-04-09T15:27:08;16.10;84.90
18823;DHT22;9540;51.550;7.980;2023-04-09T15:29:35;15.80;85.40
18823;DHT22;9540;51.550;7.980;2023-04-09T15:32:02;16.00;79.50
18823;DHT22;9540;51.550;7.980;2023-04-09T15:34:31;16.30;78.40
18823;DHT22;9540;51.550;7.980;2023-04-09T15:36:59;16.50;75.60
18823;DHT22;9540;51.550;7.980;2023-04-09T15:39:26;16.80;73.70
18823;DHT22;9540;51.550;7.980;2023-04-09T15:41:53;16.90;75.60
18823;DHT22;9540;51.550;7.980;2023-04-09T15:44:22;16.90;74.60
18823;DHT22;9540;51.550;7.980;2023-04-09T15:46:49;16.70;83.00
18823;DHT22;9540;51.550;7.980;2023-04-09T15:49:17;16.50;79.00
18823;DHT22;9540;51.550;7.980;2023-04-09T15:51:47;16.00;82.60
18823;DHT22;9540;51.550;7.980;2023-04-09T15:54:14;15.60;82.10
18823;DHT22;9540;51.550;7.980;2023-04-09T15:56:41;15.50;90.10
18823;DHT22;9540;51.550;7.980;2023-04-09T15:59:08;15.10;89.80
18823;DHT22;9540;51.550;7.980;2023-04-09T16:01:35;14.80;86.20